sensor_id;sensor_type;location;lat;lon;timestamp;temperature;humidity
43810;DHT22;29440;48.208;11.162;2023-03-21T00:00:32;7.40;99.90
43810;DHT22;29440;48.208;11.162;2023-03-21T00:02:58;7.40;99.90
43810;DHT22;29440;48.208;11.162;2023-03-21T00:05:23;7.40;99.90
43810;DHT22;29440;48.208;11.162;2023-03-21T00:07:49;7.40;99.90
43810;DHT22;29440;48.208;11.162;2023-03-21T00:10:15;7.40;99.90
43810;DHT22;29440;48.208;11.162;2023-03-21T00:12:41;7.50;99.90
43810;DHT22;29440;48.208;11.162;2023-03-21T00:15:08;7.50;99.90
43810;DHT22;29440;48.208;11.162;2023-03-21T00:17:34;7.50;99.90
43810;DHT22;29440;48.208;11.162;2023-03-21T00:20:02;7.50;99.90
43810;DHT22;29440;48.208;11.162;2023-03-21T00:22:33;7.50;99.90
43810;DHT22;29440;48.208;11.162;2023-03-21T00:24:59;7.50;99.90
43810;DHT22;29440;48.208;11.162;2023-03-21T00:27:25;7.50;99.90
43810;DHT22;29440;48.208;11.162;2023-03-21T00:29:50;7.50;99.90
43810;DHT22;29440;48.208;11.162;2023-03-21T00:32:17;7.50;99.90
43810;DHT22;29440;48.208;11.162;2023-03-21T00:34:43;7.50;99.90
43810;DHT22;29440;48.208;11.162;2023-03-21T00:37:10;7.50;99.90
43810;DHT22;29440;48.208;11.162;2023-03-21T00:39:38;7.50;99.90
43810;DHT22;29440;48.208;11.162;2023-03-21T00:42:04;7.50;99.90
43810;DHT22;29440;48.208;11.162;2023-03-21T00:44:30;7.60;99.90
43810;DHT22;29440;48.208;11.162;2023-03-21T00:47:01;7.50;99.90
43810;DHT22;29440;48.208;11.162;2023-03-21T00:49:27;7.50;99.90
43810;DHT22;29440;48.208;11.162;2023-03-21T00:51:58;7.50;99.90
43810;DHT22;29440;48.208;11.162;2023-03-21T00:54:24;7.50;99.90
43810;DHT22;29440;48.208;11.162;2023-03-21T00:56:50;7.50;99.90
43810;DHT22;29440;48.208;11.162;2023-03-21T00:59:16;7.60;99.90
43810;DHT22;29440;48.208;11.162;2023-03-21T01:01:41;7.50;99.90
43810;DHT22;29440;48.208;11.162;2023-03-21T01:04:07;7.50;99.90
43810;DHT22;29440;48.208;11.162;2023-03-21T01:06:38;7.50;99.90
43810;DHT22;29440;48.208;11.162;2023-03-21T01:09:04;7.50;99.90
43810;DHT22;29440;48.208;11.162;2023-03-21T01:11:30;7.50;99.90
43810;DHT22;29440;48.208;11.162;2023-03-21T01:13:56;7.50;99.90
43810;DHT22;29440;48.208;11.162;2023-03-21T01:16:22;7.50;99.90
43810;DHT22;29440;48.208;11.162;2023-03-21T01:18:48;7.50;99.90
43810;DHT22;29440;48.208;11.162;2023-03-21T01:21:13;7.50;99.90
43810;DHT22;29440;48.208;11.162;2023-03-21T01:23:41;7.50;99.90
43810;DHT22;29440;48.208;11.162;2023-03-21T01:26:08;7.50;99.90
43810;DHT22;29440;48.208;11.162;2023-03-21T01:28:35;7.50;99.90
43810;DHT22;29440;48.208;11.162;2023-03-21T01:31:02;7.60;99.90
43810;DHT22;29440;48.208;11.162;2023-03-21T01:33:28;7.50;99.90
43810;DHT22;29440;48.208;11.162;2023-03-21T01:35:54;7.50;99.90
43810;DHT22;29440;48.208;11.162;2023-03-21T01:38:20;7.50;99.90
43810;DHT22;29440;48.208;11.162;2023-03-21T01:40:47;7.50;99.90
43810;DHT22;29440;48.208;11.162;2023-03-21T01:48:41;7.50;99.90
43810;DHT22;29440;48.208;11.162;2023-03-21T01:51:10;7.50;99.90
43810;DHT22;29440;48.208;11.162;2023-03-21T01:53:38;7.50;99.90
43810;DHT22;29440;48.208;11.162;2023-03-21T01:56:10;7.50;99.90
43810;DHT22;29440;48.208;11.162;2023-03-21T01:58:37;7.50;99.90
43810;DHT22;29440;48.208;11.162;2023-03-21T02:01:06;7.50;99.90
43810;DHT22;29440;48.208;11.162;2023-03-21T02:03:32;7.60;99.90
43810;DHT22;29440;48.208;11.162;2023-03-21T02:06:07;7.50;99.90
43810;DHT22;29440;48.208;11.162;2023-03-21T02:08:34;7.50;99.90
43810;DHT22;29440;48.208;11.162;2023-03-21T02:10:59;7.40;99.90
43810;DHT22;29440;48.208;11.162;2023-03-21T02:13:25;7.40;99.90
43810;DHT22;29440;48.208;11.162;2023-03-21T02:24:36;7.40;99.90
43810;DHT22;29440;48.208;11.162;2023-03-21T02:27:12;7.30;99.90
43810;DHT22;29440;48.208;11.162;2023-03-21T02:44:06;7.30;99.90
43810;DHT22;29440;48.208;11.162;2023-03-21T02:46:37;7.30;99.90
43810;DHT22;29440;48.208;11.162;2023-03-21T02:49:30;7.30;99.90
43810;DHT22;29440;48.208;11.162;2023-03-21T02:51:58;7.30;99.90
43810;DHT22;29440;48.208;11.162;2023-03-21T02:54:26;7.30;99.90
43810;DHT22;29440;48.208;11.162;2023-03-21T02:56:54;7.30;99.90
43810;DHT22;29440;48.208;11.162;2023-03-21T02:59:23;7.30;99.90
43810;DHT22;29440;48.208;11.162;2023-03-21T03:01:50;7.40;99.90
43810;DHT22;29440;48.208;11.162;2023-03-21T03:04:25;7.40;99.90
43810;DHT22;29440;48.208;11.162;2023-03-21T03:12:38;7.40;99.90
43810;DHT22;29440;48.208;11.162;2023-03-21T03:15:29;7.40;99.90
43810;DHT22;29440;48.208;11.162;2023-03-21T03:18:23;7.40;99.90
43810;DHT22;29440;48.208;11.162;2023-03-21T03:23:51;7.50;99.90
43810;DHT22;29440;48.208;11.162;2023-03-21T03:26:36;7.40;99.90
43810;DHT22;29440;48.208;11.162;2023-03-21T03:29:07;7.40;99.90
43810;DHT22;29440;48.208;11.162;2023-03-21T03:31:36;7.50;99.90
43810;DHT22;29440;48.208;11.162;2023-03-21T03:34:07;7.50;99.90
43810;DHT22;29440;48.208;11.162;2023-03-21T03:36:38;7.50;99.90
43810;DHT22;29440;48.208;11.162;2023-03-21T03:39:07;7.50;99.90
43810;DHT22;29440;48.208;11.162;2023-03-21T03:42:06;7.50;99.90
43810;DHT22;29440;48.208;11.162;2023-03-21T03:44:35;7.50;99.90
43810;DHT22;29440;48.208;11.162;2023-03-21T03:47:07;7.50;99.90
43810;DHT22;29440;48.208;11.162;2023-03-21T03:49:48;7.40;99.90
43810;DHT22;29440;48.208;11.162;2023-03-21T03:52:28;7.40;99.90
43810;DHT22;29440;48.208;11.162;2023-03-21T03:54:56;7.30;99.90
43810;DHT22;29440;48.208;11.162;2023-03-21T03:57:24;7.40;99.90
43810;DHT22;29440;48.208;11.162;2023-03-21T03:59:50;7.40;99.90
43810;DHT22;29440;48.208;11.162;2023-03-21T04:02:16;7.40;99.90
43810;DHT22;29440;48.208;11.162;2023-03-21T04:04:42;7.40;99.90
43810;DHT22;29440;48.208;11.162;2023-03-21T04:07:08;7.40;99.90
43810;DHT22;29440;48.208;11.162;2023-03-21T04:09:33;7.40;99.90
43810;DHT22;29440;48.208;11.162;2023-03-21T04:11:59;7.50;99.90
43810;DHT22;29440;48.208;11.162;2023-03-21T04:14:25;7.40;99.90
43810;DHT22;29440;48.208;11.162;2023-03-21T04:16:50;7.50;99.90
43810;DHT22;29440;48.208;11.162;2023-03-21T04:19:17;7.50;99.90
43810;DHT22;29440;48.208;11.162;2023-03-21T04:21:43;7.50;99.90
43810;DHT22;29440;48.208;11.162;2023-03-21T04:24:09;7.50;99.90
43810;DHT22;29440;48.208;11.162;2023-03-21T04:26:36;7.50;99.90
43810;DHT22;29440;48.208;11.162;2023-03-21T04:29:02;7.50;99.90
43810;DHT22;29440;48.208;11.162;2023-03-21T04:31:30;7.50;99.90
43810;DHT22;29440;48.208;11.162;2023-03-21T04:33:58;7.50;99.90
43810;DHT22;29440;48.208;11.162;2023-03-21T04:36:24;7.50;99.90
43810;DHT22;29440;48.208;11.162;2023-03-21T04:38:52;7.40;99.90
43810;DHT22;29440;48.208;11.162;2023-03-21T04:41:18;7.50;99.90
43810;DHT22;29440;48.208;11.162;2023-03-21T04:43:44;7.50;99.90
43810;DHT22;29440;48.208;11.162;2023-03-21T04:46:11;7.50;99.90
43810;DHT22;29440;48.208;11.162;2023-03-21T04:48:37;7.50;99.90
43810;DHT22;29440;48.208;11.162;2023-03-21T04:51:02;7.50;99.90
43810;DHT22;29440;48.208;11.162;2023-03-21T04:53:28;7.50;99.90
43810;DHT22;29440;48.208;11.162;2023-03-21T04:55:54;7.50;99.90
43810;DHT22;29440;48.208;11.162;2023-03-21T04:58:19;7.50;99.90
43810;DHT22;29440;48.208;11.162;2023-03-21T05:00:45;7.50;99.90
43810;DHT22;29440;48.208;11.162;2023-03-21T05:03:11;7.50;99.90
43810;DHT22;29440;48.208;11.162;2023-03-21T05:05:44;7.50;99.90
43810;DHT22;29440;48.208;11.162;2023-03-21T05:08:09;7.50;99.90
43810;DHT22;29440;48.208;11.162;2023-03-21T05:10:35;7.50;99.90
43810;DHT22;29440;48.208;11.162;2023-03-21T05:13:00;7.40;99.90
43810;DHT22;29440;48.208;11.162;2023-03-21T05:15:26;7.40;99.90
43810;DHT22;29440;48.208;11.162;2023-03-21T05:17:52;7.50;99.90
43810;DHT22;29440;48.208;11.162;2023-03-21T05:20:17;7.40;99.90
43810;DHT22;29440;48.208;11.162;2023-03-21T05:22:43;7.50;99.90
43810;DHT22;29440;48.208;11.162;2023-03-21T05:25:11;7.50;99.90
43810;DHT22;29440;48.208;11.162;2023-03-21T05:27:37;7.40;99.90
43810;DHT22;29440;48.208;11.162;2023-03-21T05:30:15;7.40;99.90
43810;DHT22;29440;48.208;11.162;2023-03-21T05:32:41;7.40;99.90
43810;DHT22;29440;48.208;11.162;2023-03-21T05:35:07;7.40;99.90
43810;DHT22;29440;48.208;11.162;2023-03-21T05:37:33;7.40;99.90
43810;DHT22;29440;48.208;11.162;2023-03-21T05:39:59;7.40;99.90
43810;DHT22;29440;48.208;11.162;2023-03-21T05:42:24;7.50;99.90
43810;DHT22;29440;48.208;11.162;2023-03-21T05:44:50;7.40;99.90
43810;DHT22;29440;48.208;11.162;2023-03-21T05:47:16;7.50;99.90
43810;DHT22;29440;48.208;11.162;2023-03-21T05:49:43;7.50;99.90
43810;DHT22;29440;48.208;11.162;2023-03-21T05:52:09;7.50;99.90
43810;DHT22;29440;48.208;11.162;2023-03-21T05:54:34;7.50;99.90
43810;DHT22;29440;48.208;11.162;2023-03-21T05:57:01;7.50;99.90
43810;DHT22;29440;48.208;11.162;2023-03-21T05:59:26;7.50;99.90
43810;DHT22;29440;48.208;11.162;2023-03-21T06:01:52;7.60;99.90
43810;DHT22;29440;48.208;11.162;2023-03-21T06:04:18;7.60;99.90
43810;DHT22;29440;48.208;11.162;2023-03-21T06:06:43;7.60;99.90
43810;DHT22;29440;48.208;11.162;2023-03-21T06:09:09;7.70;99.90
43810;DHT22;29440;48.208;11.162;2023-03-21T06:11:36;7.70;99.90
43810;DHT22;29440;48.208;11.162;2023-03-21T06:14:03;7.70;99.90
43810;DHT22;29440;48.208;11.162;2023-03-21T06:16:28;7.70;99.90
43810;DHT22;29440;48.208;11.162;2023-03-21T06:18:55;7.70;99.90
43810;DHT22;29440;48.208;11.162;2023-03-21T06:21:21;7.80;99.90
43810;DHT22;29440;48.208;11.162;2023-03-21T06:23:47;7.80;99.90
43810;DHT22;29440;48.208;11.162;2023-03-21T06:26:12;7.80;99.90
43810;DHT22;29440;48.208;11.162;2023-03-21T06:28:38;7.80;99.90
43810;DHT22;29440;48.208;11.162;2023-03-21T06:31:04;7.90;99.90
43810;DHT22;29440;48.208;11.162;2023-03-21T06:33:30;7.90;99.90
43810;DHT22;29440;48.208;11.162;2023-03-21T06:35:57;8.00;99.90
43810;DHT22;29440;48.208;11.162;2023-03-21T06:38:24;8.00;99.90
43810;DHT22;29440;48.208;11.162;2023-03-21T06:40:50;8.00;99.90
43810;DHT22;29440;48.208;11.162;2023-03-21T06:43:16;8.00;99.90
43810;DHT22;29440;48.208;11.162;2023-03-21T06:45:42;8.10;99.90
43810;DHT22;29440;48.208;11.162;2023-03-21T06:48:08;8.00;99.90
43810;DHT22;29440;48.208;11.162;2023-03-21T06:50:34;8.10;99.90
43810;DHT22;29440;48.208;11.162;2023-03-21T06:52:59;8.10;99.90
43810;DHT22;29440;48.208;11.162;2023-03-21T06:55:25;8.10;99.90
43810;DHT22;29440;48.208;11.162;2023-03-21T06:57:53;8.20;99.90
43810;DHT22;29440;48.208;11.162;2023-03-21T07:00:20;8.20;99.90
43810;DHT22;29440;48.208;11.162;2023-03-21T07:02:46;8.20;99.90
43810;DHT22;29440;48.208;11.162;2023-03-21T07:05:12;8.30;99.90
43810;DHT22;29440;48.208;11.162;2023-03-21T07:07:38;8.30;99.90
43810;DHT22;29440;48.208;11.162;2023-03-21T07:10:05;8.40;99.90
43810;DHT22;29440;48.208;11.162;2023-03-21T07:12:31;8.40;99.90
43810;DHT22;29440;48.208;11.162;2023-03-21T07:14:59;8.40;99.90
43810;DHT22;29440;48.208;11.162;2023-03-21T07:17:25;8.50;99.90
43810;DHT22;29440;48.208;11.162;2023-03-21T07:19:51;8.50;99.90
43810;DHT22;29440;48.208;11.162;2023-03-21T07:22:16;8.70;99.90
43810;DHT22;29440;48.208;11.162;2023-03-21T07:24:42;8.60;99.90
43810;DHT22;29440;48.208;11.162;2023-03-21T07:27:07;8.60;99.90
43810;DHT22;29440;48.208;11.162;2023-03-21T07:29:33;8.60;99.90
43810;DHT22;29440;48.208;11.162;2023-03-21T07:31:59;8.70;99.90
43810;DHT22;29440;48.208;11.162;2023-03-21T07:34:24;8.70;99.90
43810;DHT22;29440;48.208;11.162;2023-03-21T07:36:51;8.80;99.90
43810;DHT22;29440;48.208;11.162;2023-03-21T07:39:17;8.70;99.90
43810;DHT22;29440;48.208;11.162;2023-03-21T07:41:44;8.80;99.90
43810;DHT22;29440;48.208;11.162;2023-03-21T07:44:10;8.80;99.90
43810;DHT22;29440;48.208;11.162;2023-03-21T07:46:35;8.90;99.90
43810;DHT22;29440;48.208;11.162;2023-03-21T07:49:01;8.90;99.90
43810;DHT22;29440;48.208;11.162;2023-03-21T07:51:27;8.90;99.90
43810;DHT22;29440;48.208;11.162;2023-03-21T07:53:52;9.10;99.90
43810;DHT22;29440;48.208;11.162;2023-03-21T07:56:18;9.10;99.90
43810;DHT22;29440;48.208;11.162;2023-03-21T07:58:43;9.20;99.90
43810;DHT22;29440;48.208;11.162;2023-03-21T08:01:09;9.20;99.90
43810;DHT22;29440;48.208;11.162;2023-03-21T08:03:34;9.20;99.90
43810;DHT22;29440;48.208;11.162;2023-03-21T08:06:00;9.30;99.90
43810;DHT22;29440;48.208;11.162;2023-03-21T08:08:29;9.30;99.90
43810;DHT22;29440;48.208;11.162;2023-03-21T08:10:54;9.40;99.90
43810;DHT22;29440;48.208;11.162;2023-03-21T08:13:20;9.50;99.90
43810;DHT22;29440;48.208;11.162;2023-03-21T08:15:46;9.60;99.90
43810;DHT22;29440;48.208;11.162;2023-03-21T08:18:11;9.70;99.90
43810;DHT22;29440;48.208;11.162;2023-03-21T08:20:37;9.80;99.90
43810;DHT22;29440;48.208;11.162;2023-03-21T08:23:03;9.90;99.90
43810;DHT22;29440;48.208;11.162;2023-03-21T08:25:28;9.90;99.90
43810;DHT22;29440;48.208;11.162;2023-03-21T08:27:55;10.00;99.90
43810;DHT22;29440;48.208;11.162;2023-03-21T08:30:22;10.10;99.90
43810;DHT22;29440;48.208;11.162;2023-03-21T08:32:48;10.10;99.90
43810;DHT22;29440;48.208;11.162;2023-03-21T08:35:15;10.30;99.90
43810;DHT22;29440;48.208;11.162;2023-03-21T08:37:42;10.20;99.90
43810;DHT22;29440;48.208;11.162;2023-03-21T08:40:14;10.30;99.90
43810;DHT22;29440;48.208;11.162;2023-03-21T08:42:41;10.40;99.90
43810;DHT22;29440;48.208;11.162;2023-03-21T08:45:07;10.40;99.90
43810;DHT22;29440;48.208;11.162;2023-03-21T08:47:33;10.50;99.90
43810;DHT22;29440;48.208;11.162;2023-03-21T08:49:59;10.50;99.90
43810;DHT22;29440;48.208;11.162;2023-03-21T08:52:25;10.60;99.90
43810;DHT22;29440;48.208;11.162;2023-03-21T08:54:52;10.70;99.90
43810;DHT22;29440;48.208;11.162;2023-03-21T08:57:17;10.80;99.90
43810;DHT22;29440;48.208;11.162;2023-03-21T08:59:43;10.80;99.90
43810;DHT22;29440;48.208;11.162;2023-03-21T09:02:11;10.90;99.90
43810;DHT22;29440;48.208;11.162;2023-03-21T09:04:37;11.10;99.90
43810;DHT22;29440;48.208;11.162;2023-03-21T09:07:03;11.10;99.90
43810;DHT22;29440;48.208;11.162;2023-03-21T09:09:30;11.20;99.90
43810;DHT22;29440;48.208;11.162;2023-03-21T09:11:56;11.30;99.90
43810;DHT22;29440;48.208;11.162;2023-03-21T09:14:22;11.40;99.90
43810;DHT22;29440;48.208;11.162;2023-03-21T09:16:48;11.50;99.90
43810;DHT22;29440;48.208;11.162;2023-03-21T09:19:14;11.50;99.90
43810;DHT22;29440;48.208;11.162;2023-03-21T09:21:40;11.60;99.90
43810;DHT22;29440;48.208;11.162;2023-03-21T09:24:06;11.70;99.90
43810;DHT22;29440;48.208;11.162;2023-03-21T09:26:32;11.80;99.90
43810;DHT22;29440;48.208;11.162;2023-03-21T09:28:58;11.80;99.90
43810;DHT22;29440;48.208;11.162;2023-03-21T09:31:25;11.90;99.90
43810;DHT22;29440;48.208;11.162;2023-03-21T09:33:54;12.00;99.90
43810;DHT22;29440;48.208;11.162;2023-03-21T09:36:22;12.10;99.90
43810;DHT22;29440;48.208;11.162;2023-03-21T09:38:52;12.30;99.90
43810;DHT22;29440;48.208;11.162;2023-03-21T09:47:14;12.70;99.90
43810;DHT22;29440;48.208;11.162;2023-03-21T09:49:48;12.80;99.90
43810;DHT22;29440;48.208;11.162;2023-03-21T09:54:53;13.00;99.90
43810;DHT22;29440;48.208;11.162;2023-03-21T09:59:55;13.30;99.90
43810;DHT22;29440;48.208;11.162;2023-03-21T10:02:44;13.50;99.90
43810;DHT22;29440;48.208;11.162;2023-03-21T10:05:25;13.50;99.90
43810;DHT22;29440;48.208;11.162;2023-03-21T10:10:28;13.70;99.90
43810;DHT22;29440;48.208;11.162;2023-03-21T10:12:56;13.80;99.90
43810;DHT22;29440;48.208;11.162;2023-03-21T10:15:24;13.80;99.90
43810;DHT22;29440;48.208;11.162;2023-03-21T10:17:58;13.90;99.90
43810;DHT22;29440;48.208;11.162;2023-03-21T10:20:34;13.90;99.90
43810;DHT22;29440;48.208;11.162;2023-03-21T10:23:03;13.90;99.90
43810;DHT22;29440;48.208;11.162;2023-03-21T10:25:33;14.00;99.90
43810;DHT22;29440;48.208;11.162;2023-03-21T10:28:00;14.10;99.90
43810;DHT22;29440;48.208;11.162;2023-03-21T10:33:28;14.20;99.90
43810;DHT22;29440;48.208;11.162;2023-03-21T10:36:06;14.40;99.90
43810;DHT22;29440;48.208;11.162;2023-03-21T10:38:33;14.50;99.90
43810;DHT22;29440;48.208;11.162;2023-03-21T10:40:59;14.80;99.90
43810;DHT22;29440;48.208;11.162;2023-03-21T10:45:51;15.10;99.90
43810;DHT22;29440;48.208;11.162;2023-03-21T10:48:17;15.20;99.90
43810;DHT22;29440;48.208;11.162;2023-03-21T10:50:46;15.20;99.90
43810;DHT22;29440;48.208;11.162;2023-03-21T10:53:28;15.10;99.90
43810;DHT22;29440;48.208;11.162;2023-03-21T10:55:56;15.20;99.90
43810;DHT22;29440;48.208;11.162;2023-03-21T10:58:32;15.20;99.90
43810;DHT22;29440;48.208;11.162;2023-03-21T11:01:05;15.20;99.90
43810;DHT22;29440;48.208;11.162;2023-03-21T11:03:39;15.30;99.90
43810;DHT22;29440;48.208;11.162;2023-03-21T11:06:28;15.40;99.90
43810;DHT22;29440;48.208;11.162;2023-03-21T11:08:57;15.40;99.90
43810;DHT22;29440;48.208;11.162;2023-03-21T11:11:27;15.40;99.90
43810;DHT22;29440;48.208;11.162;2023-03-21T11:14:01;15.40;99.90
43810;DHT22;29440;48.208;11.162;2023-03-21T11:16:37;15.60;99.90
43810;DHT22;29440;48.208;11.162;2023-03-21T11:19:16;15.80;99.90
43810;DHT22;29440;48.208;11.162;2023-03-21T11:21:42;15.90;99.90
43810;DHT22;29440;48.208;11.162;2023-03-21T11:24:16;15.90;99.90
43810;DHT22;29440;48.208;11.162;2023-03-21T11:26:44;16.00;99.90
43810;DHT22;29440;48.208;11.162;2023-03-21T11:29:37;16.10;99.90
43810;DHT22;29440;48.208;11.162;2023-03-21T11:32:11;16.20;99.90
43810;DHT22;29440;48.208;11.162;2023-03-21T11:34:56;16.10;99.90
43810;DHT22;29440;48.208;11.162;2023-03-21T11:37:38;16.20;99.90
43810;DHT22;29440;48.208;11.162;2023-03-21T11:40:25;16.30;99.90
43810;DHT22;29440;48.208;11.162;2023-03-21T11:42:52;16.20;99.90
43810;DHT22;29440;48.208;11.162;2023-03-21T11:45:19;16.30;99.90
43810;DHT22;29440;48.208;11.162;2023-03-21T11:47:46;16.30;99.90
43810;DHT22;29440;48.208;11.162;2023-03-21T11:50:30;16.40;99.90
43810;DHT22;29440;48.208;11.162;2023-03-21T11:58:40;16.40;99.90
43810;DHT22;29440;48.208;11.162;2023-03-21T12:01:30;16.20;99.90
43810;DHT22;29440;48.208;11.162;2023-03-21T12:04:32;16.10;99.90
43810;DHT22;29440;48.208;11.162;2023-03-21T12:07:21;16.30;99.90
43810;DHT22;29440;48.208;11.162;2023-03-21T12:18:09;16.70;99.90
43810;DHT22;29440;48.208;11.162;2023-03-21T12:20:39;16.80;99.90
43810;DHT22;29440;48.208;11.162;2023-03-21T12:32:14;16.70;99.90
43810;DHT22;29440;48.208;11.162;2023-03-21T12:34:55;16.80;99.90
43810;DHT22;29440;48.208;11.162;2023-03-21T12:38:05;16.80;99.90
43810;DHT22;29440;48.208;11.162;2023-03-21T12:40:35;16.90;99.90
43810;DHT22;29440;48.208;11.162;2023-03-21T12:45:48;16.90;99.90
43810;DHT22;29440;48.208;11.162;2023-03-21T12:50:40;16.90;99.90
43810;DHT22;29440;48.208;11.162;2023-03-21T12:53:31;17.10;99.90
43810;DHT22;29440;48.208;11.162;2023-03-21T12:56:04;17.10;99.90
43810;DHT22;29440;48.208;11.162;2023-03-21T12:58:37;17.10;99.90
43810;DHT22;29440;48.208;11.162;2023-03-21T13:01:07;17.10;99.90
43810;DHT22;29440;48.208;11.162;2023-03-21T13:03:49;16.80;99.90
43810;DHT22;29440;48.208;11.162;2023-03-21T13:06:17;16.90;99.90
43810;DHT22;29440;48.208;11.162;2023-03-21T13:08:59;16.90;99.90
43810;DHT22;29440;48.208;11.162;2023-03-21T13:11:29;16.90;99.90
43810;DHT22;29440;48.208;11.162;2023-03-21T13:14:04;17.00;99.90
43810;DHT22;29440;48.208;11.162;2023-03-21T13:24:56;17.10;99.90
43810;DHT22;29440;48.208;11.162;2023-03-21T13:27:31;17.10;99.90
43810;DHT22;29440;48.208;11.162;2023-03-21T13:30:02;17.20;99.90
43810;DHT22;29440;48.208;11.162;2023-03-21T13:32:38;17.20;99.90
43810;DHT22;29440;48.208;11.162;2023-03-21T13:37:34;17.40;99.90
43810;DHT22;29440;48.208;11.162;2023-03-21T13:40:05;17.30;99.20
43810;DHT22;29440;48.208;11.162;2023-03-21T13:42:42;17.30;99.90
43810;DHT22;29440;48.208;11.162;2023-03-21T13:45:20;17.40;99.90
43810;DHT22;29440;48.208;11.162;2023-03-21T13:47:53;17.10;99.80
43810;DHT22;29440;48.208;11.162;2023-03-21T13:55:29;17.10;99.80
43810;DHT22;29440;48.208;11.162;2023-03-21T13:58:39;17.10;99.90
43810;DHT22;29440;48.208;11.162;2023-03-21T14:01:27;17.20;99.90
43810;DHT22;29440;48.208;11.162;2023-03-21T14:06:31;17.10;99.90
43810;DHT22;29440;48.208;11.162;2023-03-21T14:08:59;17.10;99.80
43810;DHT22;29440;48.208;11.162;2023-03-21T14:11:26;17.10;99.30
43810;DHT22;29440;48.208;11.162;2023-03-21T14:13:53;17.00;99.40
43810;DHT22;29440;48.208;11.162;2023-03-21T14:16:20;17.00;99.90
43810;DHT22;29440;48.208;11.162;2023-03-21T14:18:54;17.00;99.90
43810;DHT22;29440;48.208;11.162;2023-03-21T14:21:25;17.00;99.90
43810;DHT22;29440;48.208;11.162;2023-03-21T14:24:05;17.00;99.90
43810;DHT22;29440;48.208;11.162;2023-03-21T14:26:36;16.90;98.50
43810;DHT22;29440;48.208;11.162;2023-03-21T14:29:06;16.90;99.90
43810;DHT22;29440;48.208;11.162;2023-03-21T14:31:33;16.90;99.90
43810;DHT22;29440;48.208;11.162;2023-03-21T14:34:01;16.90;99.90
43810;DHT22;29440;48.208;11.162;2023-03-21T14:36:30;16.90;98.80
43810;DHT22;29440;48.208;11.162;2023-03-21T14:39:05;16.80;97.80
43810;DHT22;29440;48.208;11.162;2023-03-21T14:41:32;16.80;99.40
43810;DHT22;29440;48.208;11.162;2023-03-21T14:46:39;16.80;99.90
43810;DHT22;29440;48.208;11.162;2023-03-21T14:49:35;16.90;99.70
43810;DHT22;29440;48.208;11.162;2023-03-21T14:54:48;16.80;98.70
43810;DHT22;29440;48.208;11.162;2023-03-21T14:57:19;16.70;99.40
43810;DHT22;29440;48.208;11.162;2023-03-21T14:59:47;16.70;99.60
43810;DHT22;29440;48.208;11.162;2023-03-21T15:02:18;16.60;99.70
43810;DHT22;29440;48.208;11.162;2023-03-21T15:04:47;16.60;99.90
43810;DHT22;29440;48.208;11.162;2023-03-21T15:09:56;16.60;99.90
43810;DHT22;29440;48.208;11.162;2023-03-21T15:12:21;16.60;99.90
43810;DHT22;29440;48.208;11.162;2023-03-21T15:14:47;16.70;99.90
43810;DHT22;29440;48.208;11.162;2023-03-21T15:17:13;16.70;99.90
43810;DHT22;29440;48.208;11.162;2023-03-21T15:19:39;16.70;99.90
43810;DHT22;29440;48.208;11.162;2023-03-21T15:22:26;16.80;99.90
43810;DHT22;29440;48.208;11.162;2023-03-21T15:24:58;16.70;99.90
43810;DHT22;29440;48.208;11.162;2023-03-21T15:27:27;16.70;99.90
43810;DHT22;29440;48.208;11.162;2023-03-21T15:29:55;16.60;99.90
43810;DHT22;29440;48.208;11.162;2023-03-21T15:32:25;16.60;99.90
43810;DHT22;29440;48.208;11.162;2023-03-21T15:35:06;16.50;99.90
43810;DHT22;29440;48.208;11.162;2023-03-21T15:37:34;16.60;99.90
43810;DHT22;29440;48.208;11.162;2023-03-21T15:40:20;16.50;99.90
43810;DHT22;29440;48.208;11.162;2023-03-21T15:42:46;16.50;99.90
43810;DHT22;29440;48.208;11.162;2023-03-21T15:45:24;16.40;99.90
43810;DHT22;29440;48.208;11.162;2023-03-21T15:47:53;16.40;99.90
43810;DHT22;29440;48.208;11.162;2023-03-21T15:52:51;16.30;99.90
43810;DHT22;29440;48.208;11.162;2023-03-21T15:55:23;16.20;99.90
43810;DHT22;29440;48.208;11.162;2023-03-21T15:57:52;16.40;99.90
43810;DHT22;29440;48.208;11.162;2023-03-21T16:00:29;16.20;99.90
43810;DHT22;29440;48.208;11.162;2023-03-21T16:03:06;16.10;99.90
43810;DHT22;29440;48.208;11.162;2023-03-21T16:05:34;16.10;99.90
43810;DHT22;29440;48.208;11.162;2023-03-21T16:08:20;16.10;99.90
43810;DHT22;29440;48.208;11.162;2023-03-21T16:10:46;16.10;99.90
43810;DHT22;29440;48.208;11.162;2023-03-21T16:13:13;16.00;99.90
43810;DHT22;29440;48.208;11.162;2023-03-21T16:15:39;16.00;99.90
43810;DHT22;29440;48.208;11.162;2023-03-21T16:18:06;16.00;99.90
43810;DHT22;29440;48.208;11.162;2023-03-21T16:20:35;15.90;99.90
43810;DHT22;29440;48.208;11.162;2023-03-21T16:23:02;15.90;99.90
43810;DHT22;29440;48.208;11.162;2023-03-21T16:25:31;15.90;99.90
43810;DHT22;29440;48.208;11.162;2023-03-21T16:27:57;15.80;99.90
43810;DHT22;29440;48.208;11.162;2023-03-21T16:30:23;15.80;99.90
43810;DHT22;29440;48.208;11.162;2023-03-21T16:32:49;15.80;99.90
43810;DHT22;29440;48.208;11.162;2023-03-21T16:35:15;15.70;99.90
43810;DHT22;29440;48.208;11.162;2023-03-21T16:37:41;15.60;99.90
43810;DHT22;29440;48.208;11.162;2023-03-21T16:40:30;15.60;99.90
43810;DHT22;29440;48.208;11.162;2023-03-21T16:42:57;15.60;99.90
43810;DHT22;29440;48.208;11.162;2023-03-21T16:45:22;15.50;99.90
43810;DHT22;29440;48.208;11.162;2023-03-21T16:47:48;15.50;99.90
43810;DHT22;29440;48.208;11.162;2023-03-21T16:50:22;15.50;99.90
43810;DHT22;29440;48.208;11.162;2023-03-21T16:52:49;15.30;99.90
43810;DHT22;29440;48.208;11.162;2023-03-21T16:55:15;15.30;99.90
43810;DHT22;29440;48.208;11.162;2023-03-21T16:57:41;15.20;99.90
43810;DHT22;29440;48.208;11.162;2023-03-21T17:00:07;15.20;99.90
43810;DHT22;29440;48.208;11.162;2023-03-21T17:02:36;15.10;99.90
43810;DHT22;29440;48.208;11.162;2023-03-21T17:05:02;15.10;99.90
43810;DHT22;29440;48.208;11.162;2023-03-21T17:07:28;15.10;99.90
43810;DHT22;29440;48.208;11.162;2023-03-21T17:09:54;15.00;99.90
43810;DHT22;29440;48.208;11.162;2023-03-21T17:12:19;14.90;99.90
43810;DHT22;29440;48.208;11.162;2023-03-21T17:14:45;14.90;99.90
43810;DHT22;29440;48.208;11.162;2023-03-21T17:17:15;14.80;99.90
43810;DHT22;29440;48.208;11.162;2023-03-21T17:19:42;14.80;99.90
43810;DHT22;29440;48.208;11.162;2023-03-21T17:22:08;14.80;99.90
43810;DHT22;29440;48.208;11.162;2023-03-21T17:24:34;14.80;99.90
43810;DHT22;29440;48.208;11.162;2023-03-21T17:27:02;14.70;99.90
43810;DHT22;29440;48.208;11.162;2023-03-21T17:29:28;14.60;99.90